sensor_id;sensor_type;location;lat;lon;timestamp;pressure;altitude;pressure_sealevel;temperature;humidity
23619;BME280;18207;32.078;34.818;2023-04-25T00:01:39;100891.78;;;25.87;40.50
23619;BME280;18207;32.078;34.818;2023-04-25T00:04:09;100893.69;;;25.83;40.60
23619;BME280;18207;32.078;34.818;2023-04-25T00:06:41;100890.41;;;25.81;40.53
23619;BME280;18207;32.078;34.818;2023-04-25T00:09:11;100890.34;;;25.77;40.63
23619;BME280;18207;32.078;34.818;2023-04-25T00:11:41;100899.50;;;25.74;40.68
23619;BME280;18207;32.078;34.818;2023-04-25T00:14:11;100888.13;;;25.71;40.54
23619;BME280;18207;32.078;34.818;2023-04-25T00:16:42;100888.88;;;25.68;40.78
23619;BME280;18207;32.078;34.818;2023-04-25T00:19:12;100887.25;;;25.67;40.69
23619;BME280;18207;32.078;34.818;2023-04-25T00:21:45;100892.44;;;25.65;40.79
23619;BME280;18207;32.078;34.818;2023-04-25T00:24:15;100898.44;;;25.63;40.76
23619;BME280;18207;32.078;34.818;2023-04-25T00:26:45;100897.16;;;25.61;40.68
23619;BME280;18207;32.078;34.818;2023-04-25T00:29:15;100893.53;;;25.60;40.83
23619;BME280;18207;32.078;34.818;2023-04-25T00:31:45;100895.09;;;25.58;40.78
23619;BME280;18207;32.078;34.818;2023-04-25T00:34:15;100901.91;;;25.57;40.74
23619;BME280;18207;32.078;34.818;2023-04-25T00:36:47;100894.16;;;25.54;40.78
23619;BME280;18207;32.078;34.818;2023-04-25T00:39:17;100901.81;;;25.53;41.01
23619;BME280;18207;32.078;34.818;2023-04-25T00:41:48;100898.91;;;25.50;40.83
23619;BME280;18207;32.078;34.818;2023-04-25T00:44:21;100903.72;;;25.49;40.81
23619;BME280;18207;32.078;34.818;2023-04-25T00:46:53;100901.28;;;25.48;40.61
23619;BME280;18207;32.078;34.818;2023-04-25T00:49:24;100898.00;;;25.46;40.84
23619;BME280;18207;32.078;34.818;2023-04-25T00:51:56;100902.00;;;25.45;40.92
23619;BME280;18207;32.078;34.818;2023-04-25T00:54:26;100891.91;;;25.44;40.86
23619;BME280;18207;32.078;34.818;2023-04-25T00:56:57;100902.72;;;25.42;40.91
23619;BME280;18207;32.078;34.818;2023-04-25T00:59:28;100907.91;;;25.40;41.00
23619;BME280;18207;32.078;34.818;2023-04-25T01:01:59;100904.97;;;25.36;40.82
23619;BME280;18207;32.078;34.818;2023-04-25T01:04:30;100905.72;;;25.33;40.81
23619;BME280;18207;32.078;34.818;2023-04-25T01:07:02;100908.88;;;25.32;41.00
23619;BME280;18207;32.078;34.818;2023-04-25T01:09:32;100904.00;;;25.29;40.94
23619;BME280;18207;32.078;34.818;2023-04-25T01:12:02;100904.72;;;25.26;40.92
23619;BME280;18207;32.078;34.818;2023-04-25T01:14:32;100903.09;;;25.25;41.08
23619;BME280;18207;32.078;34.818;2023-04-25T01:17:03;100905.44;;;25.23;41.03
23619;BME280;18207;32.078;34.818;2023-04-25T01:19:35;100898.19;;;25.22;41.01
23619;BME280;18207;32.078;34.818;2023-04-25T01:22:07;100902.16;;;25.21;40.96
23619;BME280;18207;32.078;34.818;2023-04-25T01:24:38;100911.81;;;25.20;41.21
23619;BME280;18207;32.078;34.818;2023-04-25T01:27:08;100897.28;;;25.18;40.93
23619;BME280;18207;32.078;34.818;2023-04-25T01:29:39;100913.00;;;25.19;41.38
23619;BME280;18207;32.078;34.818;2023-04-25T01:32:10;100914.19;;;25.18;41.03
23619;BME280;18207;32.078;34.818;2023-04-25T01:34:41;100910.09;;;25.15;41.03
23619;BME280;18207;32.078;34.818;2023-04-25T01:37:13;100914.53;;;25.16;41.13
23619;BME280;18207;32.078;34.818;2023-04-25T01:39:44;100907.63;;;25.14;41.19
23619;BME280;18207;32.078;34.818;2023-04-25T01:42:14;100910.81;;;25.12;41.11
23619;BME280;18207;32.078;34.818;2023-04-25T01:44:43;100911.19;;;25.11;40.95
23619;BME280;18207;32.078;34.818;2023-04-25T01:47:14;100913.50;;;25.09;41.61
23619;BME280;18207;32.078;34.818;2023-04-25T01:49:43;100923.91;;;25.08;40.95
23619;BME280;18207;32.078;34.818;2023-04-25T01:52:15;100921.47;;;25.07;41.10
23619;BME280;18207;32.078;34.818;2023-04-25T01:54:45;100921.84;;;25.06;41.17
23619;BME280;18207;32.078;34.818;2023-04-25T01:57:15;100925.84;;;25.05;41.00
23619;BME280;18207;32.078;34.818;2023-04-25T01:59:46;100929.00;;;25.03;40.91
23619;BME280;18207;32.078;34.818;2023-04-25T02:02:16;100931.38;;;25.01;41.02
23619;BME280;18207;32.078;34.818;2023-04-25T02:04:46;100935.69;;;24.99;40.75
23619;BME280;18207;32.078;34.818;2023-04-25T02:07:18;100932.44;;;24.97;41.10
23619;BME280;18207;32.078;34.818;2023-04-25T02:09:48;100929.19;;;24.95;41.09
23619;BME280;18207;32.078;34.818;2023-04-25T02:12:18;100927.53;;;24.94;41.01
23619;BME280;18207;32.078;34.818;2023-04-25T02:14:49;100941.59;;;24.94;41.13
23619;BME280;18207;32.078;34.818;2023-04-25T02:17:21;100934.72;;;24.91;41.23
23619;BME280;18207;32.078;34.818;2023-04-25T02:19:51;100941.16;;;24.92;41.15
23619;BME280;18207;32.078;34.818;2023-04-25T02:22:23;100936.69;;;24.91;41.42
23619;BME280;18207;32.078;34.818;2023-04-25T02:24:54;100940.69;;;24.90;41.17
23619;BME280;18207;32.078;34.818;2023-04-25T02:27:25;100944.66;;;24.89;41.27
23619;BME280;18207;32.078;34.818;2023-04-25T02:29:54;100941.38;;;24.87;41.11
23619;BME280;18207;32.078;34.818;2023-04-25T02:32:24;100936.50;;;24.84;41.26
23619;BME280;18207;32.078;34.818;2023-04-25T02:34:54;100938.50;;;24.83;41.09
23619;BME280;18207;32.078;34.818;2023-04-25T02:37:28;100936.84;;;24.82;41.13
23619;BME280;18207;32.078;34.818;2023-04-25T02:39:58;100943.22;;;24.79;41.21
23619;BME280;18207;32.078;34.818;2023-04-25T02:42:28;100947.19;;;24.78;40.91
23619;BME280;18207;32.078;34.818;2023-04-25T02:44:59;100946.72;;;24.76;41.04
23619;BME280;18207;32.078;34.818;2023-04-25T02:47:29;100949.91;;;24.75;41.10
23619;BME280;18207;32.078;34.818;2023-04-25T02:49:59;100951.44;;;24.72;41.44
23619;BME280;18207;32.078;34.818;2023-04-25T02:52:31;100953.44;;;24.72;41.07
23619;BME280;18207;32.078;34.818;2023-04-25T02:55:01;100948.19;;;24.70;41.73
23619;BME280;18207;32.078;34.818;2023-04-25T02:57:31;100949.34;;;24.69;41.16
23619;BME280;18207;32.078;34.818;2023-04-25T03:00:01;100952.50;;;24.68;41.34
23619;BME280;18207;32.078;34.818;2023-04-25T03:02:32;100957.31;;;24.67;41.33
23619;BME280;18207;32.078;34.818;2023-04-25T03:05:02;100952.88;;;24.66;41.03
23619;BME280;18207;32.078;34.818;2023-04-25T03:07:34;100954.88;;;24.66;41.13
23619;BME280;18207;32.078;34.818;2023-04-25T03:10:06;100957.69;;;24.66;41.01
23619;BME280;18207;32.078;34.818;2023-04-25T03:12:36;100963.66;;;24.64;40.92
23619;BME280;18207;32.078;34.818;2023-04-25T03:15:07;100956.06;;;24.65;41.21
23619;BME280;18207;32.078;34.818;2023-04-25T03:17:37;100954.41;;;24.64;41.02
23619;BME280;18207;32.078;34.818;2023-04-25T03:20:09;100955.22;;;24.64;40.91
23619;BME280;18207;32.078;34.818;2023-04-25T03:22:42;100958.84;;;24.65;41.26
23619;BME280;18207;32.078;34.818;2023-04-25T03:25:12;100960.03;;;24.64;40.90
23619;BME280;18207;32.078;34.818;2023-04-25T03:27:42;100958.41;;;24.63;40.96
23619;BME280;18207;32.078;34.818;2023-04-25T03:30:12;100960.38;;;24.62;41.14
23619;BME280;18207;32.078;34.818;2023-04-25T03:32:42;100951.94;;;24.62;41.34
23619;BME280;18207;32.078;34.818;2023-04-25T03:35:13;100953.94;;;24.62;41.12
23619;BME280;18207;32.078;34.818;2023-04-25T03:37:44;100957.56;;;24.62;41.10
23619;BME280;18207;32.078;34.818;2023-04-25T03:40:15;100949.13;;;24.62;41.08
23619;BME280;18207;32.078;34.818;2023-04-25T03:42:45;100954.75;;;24.62;41.26
23619;BME280;18207;32.078;34.818;2023-04-25T03:45:15;100949.97;;;24.63;41.20
23619;BME280;18207;32.078;34.818;2023-04-25T03:47:46;100942.34;;;24.63;41.24
23619;BME280;18207;32.078;34.818;2023-04-25T03:50:16;100948.78;;;24.64;41.22
23619;BME280;18207;32.078;34.818;2023-04-25T03:52:48;100961.22;;;24.63;40.98
23619;BME280;18207;32.078;34.818;2023-04-25T03:55:18;100954.75;;;24.62;41.20
23619;BME280;18207;32.078;34.818;2023-04-25T03:57:48;100960.38;;;24.62;41.36
23619;BME280;18207;32.078;34.818;2023-04-25T04:00:18;100964.81;;;24.63;41.28
23619;BME280;18207;32.078;34.818;2023-04-25T04:02:48;100961.22;;;24.63;41.18
23619;BME280;18207;32.078;34.818;2023-04-25T04:05:18;100961.22;;;24.63;41.18
23619;BME280;18207;32.078;34.818;2023-04-25T04:07:50;100956.75;;;24.62;41.09
23619;BME280;18207;32.078;34.818;2023-04-25T04:10:20;100964.38;;;24.61;41.37
23619;BME280;18207;32.078;34.818;2023-04-25T04:12:51;100964.38;;;24.61;41.40
23619;BME280;18207;32.078;34.818;2023-04-25T04:15:21;100964.81;;;24.63;41.50
23619;BME280;18207;32.078;34.818;2023-04-25T04:17:51;100963.66;;;24.64;41.43
23619;BME280;18207;32.078;34.818;2023-04-25T04:20:22;100971.38;;;24.67;41.61
23619;BME280;18207;32.078;34.818;2023-04-25T04:22:54;100968.56;;;24.67;41.39
23619;BME280;18207;32.078;34.818;2023-04-25T04:25:24;100969.03;;;24.69;41.53
23619;BME280;18207;32.078;34.818;2023-04-25T04:27:54;100967.03;;;24.70;41.33
23619;BME280;18207;32.078;34.818;2023-04-25T04:30:25;100965.03;;;24.70;41.56
23619;BME280;18207;32.078;34.818;2023-04-25T04:32:57;100970.28;;;24.72;41.44
23619;BME280;18207;32.078;34.818;2023-04-25T04:35:29;100968.28;;;24.72;41.84
23619;BME280;18207;32.078;34.818;2023-04-25T04:38:01;100974.38;;;24.74;41.79
23619;BME280;18207;32.078;34.818;2023-04-25T04:40:31;100974.84;;;24.76;41.55
23619;BME280;18207;32.078;34.818;2023-04-25T04:43:00;100972.50;;;24.78;41.66
23619;BME280;18207;32.078;34.818;2023-04-25T04:45:31;100970.94;;;24.81;41.77
23619;BME280;18207;32.078;34.818;2023-04-25T04:48:02;100970.59;;;24.82;41.75
23619;BME280;18207;32.078;34.818;2023-04-25T04:50:35;100975.03;;;24.83;41.81
23619;BME280;18207;32.078;34.818;2023-04-25T04:53:09;100980.31;;;24.85;41.73
23619;BME280;18207;32.078;34.818;2023-04-25T04:55:38;100981.97;;;24.86;41.72
23619;BME280;18207;32.078;34.818;2023-04-25T04:58:09;100975.13;;;24.87;41.82
23619;BME280;18207;32.078;34.818;2023-04-25T05:00:39;100977.59;;;24.88;41.82
23619;BME280;18207;32.078;34.818;2023-04-25T05:03:09;100985.34;;;24.91;41.61
23619;BME280;18207;32.078;34.818;2023-04-25T05:05:41;100978.16;;;24.94;41.86
23619;BME280;18207;32.078;34.818;2023-04-25T05:08:13;100974.59;;;24.97;41.82
23619;BME280;18207;32.078;34.818;2023-04-25T05:10:43;100983.97;;;25.01;41.79
23619;BME280;18207;32.078;34.818;2023-04-25T05:13:13;100974.44;;;25.05;41.98
23619;BME280;18207;32.078;34.818;2023-04-25T05:15:44;100982.66;;;25.10;41.82
23619;BME280;18207;32.078;34.818;2023-04-25T05:18:14;100982.41;;;25.15;41.97
23619;BME280;18207;32.078;34.818;2023-04-25T05:20:45;100987.41;;;25.21;41.72
23619;BME280;18207;32.078;34.818;2023-04-25T05:23:17;100980.31;;;25.27;41.92
23619;BME280;18207;32.078;34.818;2023-04-25T05:25:47;100987.25;;;25.30;41.96
23619;BME280;18207;32.078;34.818;2023-04-25T05:28:17;100985.78;;;25.36;41.95
23619;BME280;18207;32.078;34.818;2023-04-25T05:30:48;100984.69;;;25.40;42.23
23619;BME280;18207;32.078;34.818;2023-04-25T05:33:19;100977.16;;;25.44;42.01
23619;BME280;18207;32.078;34.818;2023-04-25T05:35:50;100972.81;;;25.47;41.88
23619;BME280;18207;32.078;34.818;2023-04-25T05:38:21;100976.09;;;25.49;42.02
23619;BME280;18207;32.078;34.818;2023-04-25T05:40:51;100976.97;;;25.53;42.19
23619;BME280;18207;32.078;34.818;2023-04-25T05:43:21;100977.06;;;25.56;42.10
23619;BME280;18207;32.078;34.818;2023-04-25T05:45:51;100965.91;;;25.60;42.26
23619;BME280;18207;32.078;34.818;2023-04-25T05:48:21;100974.06;;;25.65;42.05
23619;BME280;18207;32.078;34.818;2023-04-25T05:50:51;100969.34;;;25.69;41.82
23619;BME280;18207;32.078;34.818;2023-04-25T05:53:23;100972.72;;;25.74;42.00
23619;BME280;18207;32.078;34.818;2023-04-25T05:55:53;100973.25;;;25.80;42.13
23619;BME280;18207;32.078;34.818;2023-04-25T05:58:22;100971.81;;;25.86;42.10
23619;BME280;18207;32.078;34.818;2023-04-25T06:00:53;100967.88;;;25.90;42.19
23619;BME280;18207;32.078;34.818;2023-04-25T06:03:23;100976.03;;;25.95;42.09
23619;BME280;18207;32.078;34.818;2023-04-25T06:05:53;100971.31;;;25.99;42.08
23619;BME280;18207;32.078;34.818;2023-04-25T06:08:26;100973.03;;;26.03;41.88
23619;BME280;18207;32.078;34.818;2023-04-25T06:10:55;100982.41;;;26.07;42.01
23619;BME280;18207;32.078;34.818;2023-04-25T06:13:26;100973.19;;;26.10;41.89
23619;BME280;18207;32.078;34.818;2023-04-25T06:15:56;100972.47;;;26.13;41.81
23619;BME280;18207;32.078;34.818;2023-04-25T06:18:27;100972.19;;;26.18;41.90
23619;BME280;18207;32.078;34.818;2023-04-25T06:20:57;100974.72;;;26.23;41.76
23619;BME280;18207;32.078;34.818;2023-04-25T06:23:29;100971.97;;;26.27;41.80
23619;BME280;18207;32.078;34.818;2023-04-25T06:25:59;100969.22;;;26.30;41.66
23619;BME280;18207;32.078;34.818;2023-04-25T06:28:29;100978.59;;;26.34;41.71
23619;BME280;18207;32.078;34.818;2023-04-25T06:30:59;100981.47;;;26.38;41.75
23619;BME280;18207;32.078;34.818;2023-04-25T06:33:30;100979.94;;;26.40;41.59
23619;BME280;18207;32.078;34.818;2023-04-25T06:36:01;100986.50;;;26.44;41.89
23619;BME280;18207;32.078;34.818;2023-04-25T06:38:33;100988.66;;;26.51;41.82
23619;BME280;18207;32.078;34.818;2023-04-25T06:41:10;100991.16;;;26.56;41.94
23619;BME280;18207;32.078;34.818;2023-04-25T06:43:40;100996.53;;;26.61;41.93
23619;BME280;18207;32.078;34.818;2023-04-25T06:46:10;100997.41;;;26.65;41.80
23619;BME280;18207;32.078;34.818;2023-04-25T06:48:41;100991.03;;;26.68;41.70
23619;BME280;18207;32.078;34.818;2023-04-25T06:51:11;100996.28;;;26.69;41.75
23619;BME280;18207;32.078;34.818;2023-04-25T06:53:43;100999.19;;;26.73;41.55
23619;BME280;18207;32.078;34.818;2023-04-25T06:56:13;100990.81;;;26.76;41.61
23619;BME280;18207;32.078;34.818;2023-04-25T06:58:44;100995.34;;;26.81;41.58
23619;BME280;18207;32.078;34.818;2023-04-25T07:01:14;100989.38;;;26.85;41.54
23619;BME280;18207;32.078;34.818;2023-04-25T07:03:44;100994.34;;;26.92;41.51
23619;BME280;18207;32.078;34.818;2023-04-25T07:06:14;100984.38;;;26.98;41.65
23619;BME280;18207;32.078;34.818;2023-04-25T07:08:46;100988.19;;;27.05;41.63
23619;BME280;18207;32.078;34.818;2023-04-25T07:11:16;100989.16;;;27.13;41.56
23619;BME280;18207;32.078;34.818;2023-04-25T07:13:46;100987.66;;;27.19;41.36
23619;BME280;18207;32.078;34.818;2023-04-25T07:16:17;100984.53;;;27.24;41.38
23619;BME280;18207;32.078;34.818;2023-04-25T07:18:46;100983.41;;;27.28;41.49
23619;BME280;18207;32.078;34.818;2023-04-25T07:21:17;100970.59;;;27.34;41.65
23619;BME280;18207;32.078;34.818;2023-04-25T07:23:49;100981.59;;;27.39;41.41
23619;BME280;18207;32.078;34.818;2023-04-25T07:26:19;100976.06;;;27.46;41.46
23619;BME280;18207;32.078;34.818;2023-04-25T07:28:49;100971.72;;;27.52;41.40
23619;BME280;18207;32.078;34.818;2023-04-25T07:31:19;100973.06;;;27.58;41.42
23619;BME280;18207;32.078;34.818;2023-04-25T07:33:50;100966.75;;;27.65;41.16
23619;BME280;18207;32.078;34.818;2023-04-25T07:36:20;100968.03;;;27.71;41.80
23619;BME280;18207;32.078;34.818;2023-04-25T07:38:51;100970.97;;;27.77;41.49
23619;BME280;18207;32.078;34.818;2023-04-25T07:41:21;100965.81;;;27.83;41.50
23619;BME280;18207;32.078;34.818;2023-04-25T07:43:51;100967.16;;;27.89;41.51
23619;BME280;18207;32.078;34.818;2023-04-25T07:46:21;100968.44;;;27.95;41.59
23619;BME280;18207;32.078;34.818;2023-04-25T07:48:51;100960.47;;;28.00;41.51
23619;BME280;18207;32.078;34.818;2023-04-25T07:51:21;100959.31;;;28.05;41.23
23619;BME280;18207;32.078;34.818;2023-04-25T07:53:53;100954.59;;;28.12;41.51
23619;BME280;18207;32.078;34.818;2023-04-25T07:56:23;100967.56;;;28.17;41.58
23619;BME280;18207;32.078;34.818;2023-04-25T07:58:53;100958.78;;;28.22;41.31
23619;BME280;18207;32.078;34.818;2023-04-25T08:01:24;100957.28;;;28.28;41.13
23619;BME280;18207;32.078;34.818;2023-04-25T08:03:53;100949.28;;;28.33;41.30
23619;BME280;18207;32.078;34.818;2023-04-25T08:06:24;100954.97;;;28.37;41.30
23619;BME280;18207;32.078;34.818;2023-04-25T08:08:56;100956.25;;;28.43;41.31
23619;BME280;18207;32.078;34.818;2023-04-25T08:11:26;100957.91;;;28.47;41.16
23619;BME280;18207;32.078;34.818;2023-04-25T08:13:56;100960.44;;;28.52;41.05
23619;BME280;18207;32.078;34.818;2023-04-25T08:16:25;100958.44;;;28.56;41.01
23619;BME280;18207;32.078;34.818;2023-04-25T08:18:56;100962.13;;;28.60;40.93
23619;BME280;18207;32.078;34.818;2023-04-25T08:21:25;100949.22;;;28.63;41.11
23619;BME280;18207;32.078;34.818;2023-04-25T08:23:57;100946.44;;;28.66;40.65
23619;BME280;18207;32.078;34.818;2023-04-25T08:26:29;100943.25;;;28.67;40.47
23619;BME280;18207;32.078;34.818;2023-04-25T08:29:00;100946.13;;;28.71;40.38
23619;BME280;18207;32.078;34.818;2023-04-25T08:31:30;100950.97;;;28.74;40.75
23619;BME280;18207;32.078;34.818;2023-04-25T08:34:00;100940.09;;;28.76;40.81
23619;BME280;18207;32.078;34.818;2023-04-25T08:36:31;100940.53;;;28.78;40.66
23619;BME280;18207;32.078;34.818;2023-04-25T08:39:07;100940.59;;;28.81;40.88
23619;BME280;18207;32.078;34.818;2023-04-25T08:41:38;100935.38;;;28.83;40.78
23619;BME280;18207;32.078;34.818;2023-04-25T08:44:11;100934.97;;;28.85;40.59
23619;BME280;18207;32.078;34.818;2023-04-25T08:46:42;100937.44;;;28.86;40.60
23619;BME280;18207;32.078;34.818;2023-04-25T08:49:18;100924.91;;;28.87;40.33
23619;BME280;18207;32.078;34.818;2023-04-25T08:51:48;100934.66;;;28.90;40.41
23619;BME280;18207;32.078;34.818;2023-04-25T08:54:23;100931.41;;;28.91;40.20
23619;BME280;18207;32.078;34.818;2023-04-25T08:57:03;100922.56;;;28.93;40.41
23619;BME280;18207;32.078;34.818;2023-04-25T08:59:33;100924.16;;;28.94;40.07
23619;BME280;18207;32.078;34.818;2023-04-25T09:02:05;100931.09;;;28.96;40.47
23619;BME280;18207;32.078;34.818;2023-04-25T09:04:37;100917.72;;;28.97;40.19
23619;BME280;18207;32.078;34.818;2023-04-25T09:07:08;100918.16;;;28.99;40.37
23619;BME280;18207;32.078;34.818;2023-04-25T09:09:39;100916.97;;;29.00;39.97
23619;BME280;18207;32.078;34.818;2023-04-25T09:12:10;100922.63;;;29.00;39.95
23619;BME280;18207;32.078;34.818;2023-04-25T09:14:40;100910.09;;;29.01;40.11
23619;BME280;18207;32.078;34.818;2023-04-25T09:17:11;100907.66;;;29.03;39.91
23619;BME280;18207;32.078;34.818;2023-04-25T09:19:42;100906.47;;;29.04;39.94
23619;BME280;18207;32.078;34.818;2023-04-25T09:22:13;100908.50;;;29.03;40.07
23619;BME280;18207;32.078;34.818;2023-04-25T09:24:46;100904.91;;;29.06;40.28
23619;BME280;18207;32.078;34.818;2023-04-25T09:27:20;100898.41;;;29.06;39.95
23619;BME280;18207;32.078;34.818;2023-04-25T09:29:58;100901.66;;;29.08;40.21
23619;BME280;18207;32.078;34.818;2023-04-25T09:32:29;100904.50;;;29.08;40.11
23619;BME280;18207;32.078;34.818;2023-04-25T09:35:00;100899.28;;;29.10;39.73
23619;BME280;18207;32.078;34.818;2023-04-25T09:37:31;100891.59;;;29.10;40.16
23619;BME280;18207;32.078;34.818;2023-04-25T09:40:06;100886.34;;;29.12;39.99
23619;BME280;18207;32.078;34.818;2023-04-25T09:42:42;100890.81;;;29.13;40.07
23619;BME280;18207;32.078;34.818;2023-04-25T09:45:13;100882.31;;;29.13;40.29
23619;BME280;18207;32.078;34.818;2023-04-25T09:47:44;100893.63;;;29.13;40.10
23619;BME280;18207;32.078;34.818;2023-04-25T09:50:16;100894.06;;;29.15;40.17
23619;BME280;18207;32.078;34.818;2023-04-25T09:53:03;100889.63;;;29.18;39.85
23619;BME280;18207;32.078;34.818;2023-04-25T09:55:38;100893.25;;;29.18;40.15
23619;BME280;18207;32.078;34.818;2023-04-25T09:58:11;100890.88;;;29.20;40.28
23619;BME280;18207;32.078;34.818;2023-04-25T10:00:42;100888.03;;;29.20;40.13
23619;BME280;18207;32.078;34.818;2023-04-25T10:03:14;100882.81;;;29.22;39.81
23619;BME280;18207;32.078;34.818;2023-04-25T10:05:46;100893.72;;;29.24;39.76
23619;BME280;18207;32.078;34.818;2023-04-25T10:08:17;100886.88;;;29.25;40.08
23619;BME280;18207;32.078;34.818;2023-04-25T10:10:50;100888.91;;;29.24;39.95
23619;BME280;18207;32.078;34.818;2023-04-25T10:13:20;100879.19;;;29.25;39.96
23619;BME280;18207;32.078;34.818;2023-04-25T10:15:52;100873.97;;;29.27;39.71
23619;BME280;18207;32.078;34.818;2023-04-25T10:18:24;100880.41;;;29.28;39.79
23619;BME280;18207;32.078;34.818;2023-04-25T10:20:55;100880.03;;;29.29;40.04
23619;BME280;18207;32.078;34.818;2023-04-25T10:23:26;100877.19;;;29.29;39.83
23619;BME280;18207;32.078;34.818;2023-04-25T10:25:59;100883.28;;;29.31;39.57
23619;BME280;18207;32.078;34.818;2023-04-25T10:28:56;100878.03;;;29.33;40.12
23619;BME280;18207;32.078;34.818;2023-04-25T10:31:26;100883.28;;;29.31;39.77
23619;BME280;18207;32.078;34.818;2023-04-25T10:33:58;100878.03;;;29.33;39.88
23619;BME280;18207;32.078;34.818;2023-04-25T10:36:32;100886.97;;;29.35;39.97
23619;BME280;18207;32.078;34.818;2023-04-25T10:39:06;100874.81;;;29.35;39.89
23619;BME280;18207;32.078;34.818;2023-04-25T10:41:53;100877.28;;;29.36;39.76
23619;BME280;18207;32.078;34.818;2023-04-25T10:44:27;100879.28;;;29.36;39.52
23619;BME280;18207;32.078;34.818;2023-04-25T10:46:59;100873.59;;;29.36;39.53
23619;BME280;18207;32.078;34.818;2023-04-25T10:49:33;100868.41;;;29.38;39.58
23619;BME280;18207;32.078;34.818;2023-04-25T10:52:19;100871.22;;;29.38;39.77
23619;BME280;18207;32.078;34.818;2023-04-25T10:54:56;100868.78;;;29.36;39.51
23619;BME280;18207;32.078;34.818;2023-04-25T10:57:31;100868.41;;;29.38;39.79
23619;BME280;18207;32.078;34.818;2023-04-25T11:00:08;100877.69;;;29.38;39.46
23619;BME280;18207;32.078;34.818;2023-04-25T11:02:44;100871.22;;;29.38;39.59
23619;BME280;18207;32.078;34.818;2023-04-25T11:05:31;100875.69;;;29.39;39.71
23619;BME280;18207;32.078;34.818;2023-04-25T11:08:21;100868.00;;;29.39;39.57
23619;BME280;18207;32.078;34.818;2023-04-25T11:10:55;100862.34;;;29.39;39.34
23619;BME280;18207;32.078;34.818;2023-04-25T11:13:31;100881.78;;;29.41;39.69
23619;BME280;18207;32.078;34.818;2023-04-25T11:16:01;100875.28;;;29.40;39.14
23619;BME280;18207;32.078;34.818;2023-04-25T11:18:41;100869.63;;;29.40;39.53
23619;BME280;18207;32.078;34.818;2023-04-25T11:21:13;100867.63;;;29.41;39.41
23619;BME280;18207;32.078;34.818;2023-04-25T11:23:45;100876.13;;;29.41;39.38
23619;BME280;18207;32.078;34.818;2023-04-25T11:26:16;100867.63;;;29.41;39.66
23619;BME280;18207;32.078;34.818;2023-04-25T11:28:49;100861.13;;;29.40;39.22
23619;BME280;18207;32.078;34.818;2023-04-25T11:31:21;100859.50;;;29.39;39.09
23619;BME280;18207;32.078;34.818;2023-04-25T11:33:53;100865.16;;;29.39;39.35
23619;BME280;18207;32.078;34.818;2023-04-25T11:36:23;100868.00;;;29.39;39.06
23619;BME280;18207;32.078;34.818;2023-04-25T11:38:54;100860.34;;;29.40;39.61
23619;BME280;18207;32.078;34.818;2023-04-25T11:41:26;100855.88;;;29.39;39.46
23619;BME280;18207;32.078;34.818;2023-04-25T11:43:58;100854.66;;;29.40;38.97
23619;BME280;18207;32.078;34.818;2023-04-25T11:46:28;100851.84;;;29.40;38.89
23619;BME280;18207;32.078;34.818;2023-04-25T11:48:58;100855.47;;;29.40;38.93
23619;BME280;18207;32.078;34.818;2023-04-25T11:51:29;100854.66;;;29.40;39.38
23619;BME280;18207;32.078;34.818;2023-04-25T11:53:59;100849.81;;;29.40;38.88
23619;BME280;18207;32.078;34.818;2023-04-25T11:56:30;100855.47;;;29.40;39.35
23619;BME280;18207;32.078;34.818;2023-04-25T11:59:05;100844.16;;;29.40;39.00
23619;BME280;18207;32.078;34.818;2023-04-25T12:01:38;100849.00;;;29.40;39.14
23619;BME280;18207;32.078;34.818;2023-04-25T12:04:13;100844.53;;;29.39;39.02
23619;BME280;18207;32.078;34.818;2023-04-25T12:06:46;100840.88;;;29.38;38.73
23619;BME280;18207;32.078;34.818;2023-04-25T12:09:19;100842.09;;;29.37;39.11
23619;BME280;18207;32.078;34.818;2023-04-25T12:11:54;100838.88;;;29.39;38.89
23619;BME280;18207;32.078;34.818;2023-04-25T12:14:30;100841.25;;;29.37;38.86
23619;BME280;18207;32.078;34.818;2023-04-25T12:17:03;100841.66;;;29.35;38.97
23619;BME280;18207;32.078;34.818;2023-04-25T12:19:38;100838.00;;;29.35;38.79
23619;BME280;18207;32.078;34.818;2023-04-25T12:22:22;100835.16;;;29.35;38.91
23619;BME280;18207;32.078;34.818;2023-04-25T12:24:53;100835.97;;;29.32;39.18
23619;BME280;18207;32.078;34.818;2023-04-25T12:27:26;100840.81;;;29.31;38.77
23619;BME280;18207;32.078;34.818;2023-04-25T12:29:59;100834.34;;;29.31;38.66
23619;BME280;18207;32.078;34.818;2023-04-25T12:32:30;100827.06;;;29.30;39.08
23619;BME280;18207;32.078;34.818;2023-04-25T12:35:00;100830.25;;;29.28;38.83
23619;BME280;18207;32.078;34.818;2023-04-25T12:37:30;100835.13;;;29.28;38.68
23619;BME280;18207;32.078;34.818;2023-04-25T12:40:00;100832.69;;;29.26;38.96
23619;BME280;18207;32.078;34.818;2023-04-25T12:42:32;100824.56;;;29.25;38.63
23619;BME280;18207;32.078;34.818;2023-04-25T12:45:06;100821.75;;;29.25;38.72
23619;BME280;18207;32.078;34.818;2023-04-25T12:47:36;100823.78;;;29.24;39.00
23619;BME280;18207;32.078;34.818;2023-04-25T12:50:07;100820.09;;;29.24;38.67
23619;BME280;18207;32.078;34.818;2023-04-25T12:52:37;100824.16;;;29.23;38.49
23619;BME280;18207;32.078;34.818;2023-04-25T12:55:08;100818.09;;;29.21;38.75
23619;BME280;18207;32.078;34.818;2023-04-25T12:57:38;100820.91;;;29.21;38.71
23619;BME280;18207;32.078;34.818;2023-04-25T13:00:12;100822.13;;;29.20;38.75
23619;BME280;18207;32.078;34.818;2023-04-25T13:02:45;100824.53;;;29.18;38.73